createdAt,value
2022-12-03T00:02:00.829Z,10.60
2022-12-03T00:04:29.826Z,10.50
2022-12-03T00:07:00.506Z,9.18
2022-12-03T00:09:29.377Z,10.18
2022-12-03T00:11:58.358Z,11.02
2022-12-03T00:14:27.425Z,9.77
2022-12-03T00:16:56.234Z,9.73
2022-12-03T00:19:25.070Z,10.27
2022-12-03T00:21:54.158Z,9.10
2022-12-03T00:24:24.468Z,9.73
2022-12-03T00:26:53.380Z,9.48
2022-12-03T00:29:22.368Z,9.88
2022-12-03T00:31:51.308Z,10.23
2022-12-03T00:34:20.508Z,10.73
2022-12-03T00:36:50.120Z,10.27
2022-12-03T00:39:19.215Z,9.63
2022-12-03T00:41:49.541Z,10.07
2022-12-03T00:44:18.343Z,13.43
2022-12-03T00:46:47.439Z,14.27
2022-12-03T00:49:16.932Z,10.85
2022-12-03T00:51:45.926Z,8.52
2022-12-03T00:54:15.037Z,9.75
2022-12-03T00:56:44.030Z,9.82
2022-12-03T00:59:14.325Z,13.02
2022-12-03T01:01:43.276Z,10.88
2022-12-03T01:04:12.143Z,11.00
2022-12-03T01:06:41.317Z,8.52
2022-12-03T01:09:10.220Z,11.00
2022-12-03T01:11:39.114Z,9.65
2022-12-03T01:14:09.139Z,8.82
2022-12-03T01:16:39.915Z,10.20
2022-12-03T01:19:11.266Z,12.00
2022-12-03T01:21:40.116Z,7.70
2022-12-03T01:24:09.285Z,8.50
2022-12-03T01:26:38.379Z,8.30
2022-12-03T01:29:07.503Z,9.35
2022-12-03T01:31:54.138Z,8.82
2022-12-03T01:34:24.522Z,8.85
2022-12-03T01:36:53.502Z,11.68
2022-12-03T01:39:22.862Z,8.25
2022-12-03T01:41:54.007Z,10.07
2022-12-03T01:44:24.659Z,11.32
2022-12-03T01:46:57.325Z,9.35
2022-12-03T01:49:30.436Z,8.48
2022-12-03T01:52:00.315Z,10.32
2022-12-03T01:54:37.867Z,8.05
2022-12-03T01:57:08.071Z,8.88
2022-12-03T01:59:39.909Z,8.57
2022-12-03T02:02:14.149Z,8.23
2022-12-03T02:04:44.464Z,9.75
2022-12-03T02:07:22.334Z,9.18
2022-12-03T02:09:51.793Z,9.95
2022-12-03T02:12:26.575Z,6.65
2022-12-03T02:14:56.278Z,8.35
2022-12-03T02:17:26.579Z,8.18
2022-12-03T02:19:58.306Z,10.77
2022-12-03T02:22:39.468Z,6.45
2022-12-03T02:25:22.183Z,7.15
2022-12-03T02:27:52.140Z,10.25
2022-12-03T02:30:23.928Z,7.55
2022-12-03T02:32:54.064Z,7.45
2022-12-03T02:35:25.299Z,9.40
2022-12-03T02:37:59.495Z,7.93
2022-12-03T02:40:33.699Z,9.57
2022-12-03T02:43:04.961Z,7.13
2022-12-03T02:45:35.835Z,9.00
2022-12-03T02:48:09.585Z,9.65
2022-12-03T02:50:42.462Z,10.43
2022-12-03T02:53:15.663Z,9.67
2022-12-03T02:55:47.344Z,7.63
2022-12-03T02:58:16.924Z,8.95
2022-12-03T03:00:46.791Z,9.30
2022-12-03T03:03:17.973Z,10.00
2022-12-03T03:05:48.383Z,9.93
2022-12-03T03:08:19.207Z,10.57
2022-12-03T03:10:50.810Z,9.70
2022-12-03T03:13:21.282Z,8.63
2022-12-03T03:15:50.154Z,10.77
2022-12-03T03:18:20.256Z,9.52
2022-12-03T03:20:49.405Z,9.38
2022-12-03T03:23:20.802Z,11.05
2022-12-03T03:25:57.886Z,6.85
2022-12-03T03:28:28.004Z,10.15
2022-12-03T03:30:58.066Z,8.57
2022-12-03T03:33:27.034Z,7.97
2022-12-03T03:35:55.968Z,9.15
2022-12-03T03:38:25.604Z,8.18
2022-12-03T03:40:56.037Z,8.65
2022-12-03T03:43:26.252Z,8.60
2022-12-03T03:45:55.714Z,8.63
2022-12-03T03:48:24.866Z,11.65
2022-12-03T03:50:54.491Z,9.43
2022-12-03T03:53:24.562Z,6.63
2022-12-03T03:55:55.189Z,8.73
2022-12-03T03:58:24.723Z,15.38
2022-12-03T04:00:54.002Z,14.20
2022-12-03T04:03:23.150Z,8.30
2022-12-03T04:05:52.505Z,12.73
2022-12-03T04:08:21.477Z,10.35
2022-12-03T04:11:07.630Z,9.23
2022-12-03T04:13:38.096Z,8.57
2022-12-03T04:16:07.599Z,9.02
2022-12-03T04:18:45.629Z,10.85
2022-12-03T04:21:34.467Z,9.70
2022-12-03T04:24:04.199Z,8.15
2022-12-03T04:26:50.725Z,10.80
2022-12-03T04:29:22.448Z,8.15
2022-12-03T04:32:08.985Z,7.57
2022-12-03T04:34:55.535Z,8.65
2022-12-03T04:37:24.900Z,8.93
2022-12-03T04:39:53.911Z,8.23
2022-12-03T04:42:22.941Z,8.32
2022-12-03T04:44:53.513Z,8.95
2022-12-03T04:47:23.652Z,8.73
2022-12-03T04:49:53.220Z,7.05
2022-12-03T04:52:22.602Z,9.93
2022-12-03T04:54:51.739Z,7.60
2022-12-03T04:57:20.726Z,8.00
2022-12-03T04:59:49.627Z,7.60
2022-12-03T05:02:19.881Z,8.57
2022-12-03T05:04:48.826Z,8.55
2022-12-03T05:07:17.799Z,8.23
2022-12-03T05:09:46.862Z,13.80
2022-12-03T05:12:15.820Z,8.63
2022-12-03T05:14:44.754Z,9.10
2022-12-03T05:17:13.571Z,10.68
2022-12-03T05:20:01.394Z,10.80
2022-12-03T05:22:30.944Z,11.43
2022-12-03T05:25:00.099Z,8.77
2022-12-03T05:27:28.928Z,9.45
2022-12-03T05:29:57.827Z,10.52
2022-12-03T05:32:26.617Z,11.55
2022-12-03T05:34:56.977Z,11.38
2022-12-03T05:37:26.757Z,7.47
2022-12-03T05:39:55.909Z,6.93
2022-12-03T05:42:38.810Z,12.48
2022-12-03T05:45:08.691Z,9.80
2022-12-03T05:47:37.758Z,10.32
2022-12-03T05:50:09.543Z,10.73
2022-12-03T05:52:38.424Z,9.60
2022-12-03T05:55:08.432Z,9.88
2022-12-03T05:57:37.988Z,8.40
2022-12-03T06:00:10.427Z,10.70
2022-12-03T06:02:42.095Z,9.02
2022-12-03T06:05:14.104Z,8.48
2022-12-03T06:07:43.864Z,8.43
2022-12-03T06:10:15.763Z,10.98
2022-12-03T06:12:44.900Z,14.98
2022-12-03T06:15:15.325Z,8.65
2022-12-03T06:17:44.563Z,11.35
2022-12-03T06:20:16.959Z,15.57
2022-12-03T06:22:46.150Z,10.98
2022-12-03T06:25:16.018Z,11.50
2022-12-03T06:27:45.761Z,11.45
2022-12-03T06:30:15.846Z,11.18
2022-12-03T06:32:45.711Z,15.23
2022-12-03T06:35:16.143Z,12.43
2022-12-03T06:37:45.262Z,12.40
2022-12-03T06:40:15.146Z,12.23
2022-12-03T06:42:44.187Z,12.23
2022-12-03T06:45:14.561Z,13.55
2022-12-03T06:47:43.690Z,17.92
2022-12-03T06:50:13.107Z,13.23
2022-12-03T06:52:43.354Z,12.95
2022-12-03T06:55:12.123Z,18.15
2022-12-03T06:57:41.299Z,13.48
2022-12-03T07:00:11.379Z,12.05
2022-12-03T07:02:40.331Z,11.38
2022-12-03T07:05:09.996Z,13.02
2022-12-03T07:07:40.724Z,14.63
2022-12-03T07:10:11.712Z,19.13
2022-12-03T07:12:41.026Z,18.05
2022-12-03T07:15:10.685Z,14.75
2022-12-03T07:17:39.664Z,17.23
2022-12-03T07:20:10.048Z,17.77
2022-12-03T07:22:39.152Z,15.73
2022-12-03T07:25:10.776Z,18.40
2022-12-03T07:27:39.655Z,18.20
2022-12-03T07:30:09.977Z,15.38
2022-12-03T07:32:38.911Z,20.67
2022-12-03T07:35:08.543Z,20.10
2022-12-03T07:37:37.936Z,17.65
2022-12-03T07:40:08.872Z,24.50
2022-12-03T07:42:39.358Z,18.52
2022-12-03T07:45:10.122Z,15.15
2022-12-03T07:47:38.964Z,20.00
2022-12-03T07:50:09.170Z,18.65
2022-12-03T07:52:38.470Z,21.02
2022-12-03T07:55:08.383Z,17.25
2022-12-03T07:57:38.942Z,16.02
2022-12-03T08:00:09.641Z,15.55
2022-12-03T08:02:39.212Z,21.38
2022-12-03T08:05:08.916Z,17.95
2022-12-03T08:07:38.024Z,19.02
2022-12-03T08:10:09.942Z,21.08
2022-12-03T08:12:43.011Z,17.33
2022-12-03T08:15:15.269Z,22.60
2022-12-03T08:17:45.836Z,20.70
2022-12-03T08:20:18.181Z,20.02
2022-12-03T08:22:49.405Z,16.38
2022-12-03T08:25:22.640Z,18.98
2022-12-03T08:27:58.077Z,14.45
2022-12-03T08:30:27.088Z,17.60
2022-12-03T08:32:59.228Z,18.40
2022-12-03T08:35:31.895Z,21.42
2022-12-03T08:38:26.565Z,17.42
2022-12-03T08:40:56.627Z,22.77
2022-12-03T08:43:29.394Z,21.17
2022-12-03T08:49:43.790Z,18.08
2022-12-03T08:52:16.415Z,20.23
2022-12-03T08:54:50.241Z,19.73
2022-12-03T09:00:05.002Z,15.23
2022-12-03T09:02:36.078Z,13.32
2022-12-03T09:05:17.822Z,23.73
2022-12-03T09:07:47.831Z,19.48
2022-12-03T09:10:17.411Z,21.45
2022-12-03T09:12:46.235Z,18.77
2022-12-03T09:15:17.144Z,15.50
2022-12-03T09:17:46.464Z,22.05
2022-12-03T09:20:16.203Z,17.05
2022-12-03T09:22:45.286Z,17.05
2022-12-03T09:25:14.361Z,16.95
2022-12-03T09:27:43.341Z,18.67
2022-12-03T09:30:13.335Z,16.90
2022-12-03T09:32:43.868Z,15.80
2022-12-03T09:35:13.125Z,22.98
2022-12-03T09:37:42.470Z,18.08
2022-12-03T09:40:13.024Z,20.00
2022-12-03T09:42:42.706Z,18.50
2022-12-03T09:45:36.007Z,18.58
2022-12-03T09:48:07.210Z,13.40
2022-12-03T09:50:41.585Z,20.33
2022-12-03T09:53:17.693Z,19.02
2022-12-03T09:55:51.594Z,16.67
2022-12-03T10:00:53.146Z,13.55
2022-12-03T10:03:30.314Z,20.13
2022-12-03T10:06:00.027Z,19.80
2022-12-03T10:08:32.803Z,18.00
2022-12-03T10:11:02.258Z,20.60
2022-12-03T10:13:34.958Z,19.90
2022-12-03T10:16:04.242Z,23.95
2022-12-03T10:18:41.465Z,22.90
2022-12-03T10:21:19.994Z,22.00
2022-12-03T10:23:55.048Z,21.00
2022-12-03T10:26:40.752Z,19.63
2022-12-03T10:29:15.854Z,21.30
2022-12-03T10:32:00.431Z,18.50
2022-12-03T10:34:38.463Z,19.02
2022-12-03T10:37:13.626Z,16.80
2022-12-03T10:39:59.322Z,17.55
2022-12-03T10:42:31.040Z,17.15
2022-12-03T10:45:16.670Z,19.20
2022-12-03T10:48:07.863Z,16.70
2022-12-03T10:50:38.674Z,17.00
2022-12-03T10:53:07.557Z,16.35
2022-12-03T10:55:39.880Z,13.00
2022-12-03T10:58:19.208Z,19.30
2022-12-03T11:00:48.580Z,16.38
2022-12-03T11:03:22.013Z,18.48
2022-12-03T11:05:54.809Z,19.45
2022-12-03T11:08:26.202Z,17.90
2022-12-03T11:11:08.218Z,19.48
2022-12-03T11:13:53.084Z,17.92
2022-12-03T11:17:00.570Z,16.05
2022-12-03T11:19:52.762Z,19.42
2022-12-03T11:22:46.514Z,18.13
2022-12-03T11:25:48.241Z,14.60
2022-12-03T11:28:35.405Z,17.80
2022-12-03T11:31:11.597Z,15.20
2022-12-03T11:33:46.038Z,15.23
2022-12-03T11:36:31.624Z,20.30
2022-12-03T11:39:10.391Z,13.53
2022-12-03T11:41:39.668Z,16.67
2022-12-03T11:44:32.968Z,14.05
2022-12-03T11:47:21.321Z,16.35
2022-12-03T11:49:51.972Z,11.48
2022-12-03T11:52:28.927Z,12.13
2022-12-03T11:55:30.432Z,9.77
2022-12-03T11:58:00.893Z,16.75
2022-12-03T12:00:30.249Z,13.55
2022-12-03T12:03:03.686Z,13.23
2022-12-03T12:05:34.125Z,16.95
2022-12-03T12:08:04.256Z,15.45
2022-12-03T12:10:47.492Z,17.35
2022-12-03T12:13:58.309Z,14.20
2022-12-03T12:16:42.749Z,10.90
2022-12-03T12:19:35.288Z,13.27
2022-12-03T12:22:19.009Z,13.65
2022-12-03T12:24:52.631Z,13.02
2022-12-03T12:34:50.546Z,17.77
2022-12-03T12:37:25.542Z,16.15
2022-12-03T12:39:58.742Z,15.45
2022-12-03T12:42:35.955Z,16.45
2022-12-03T12:45:27.285Z,19.27
2022-12-03T12:48:40.381Z,11.85
2022-12-03T12:51:28.355Z,13.90
2022-12-03T12:53:58.915Z,14.95
2022-12-03T12:56:31.155Z,15.43
2022-12-03T12:59:12.318Z,12.55
2022-12-03T13:01:42.799Z,10.48
2022-12-03T16:17:29.921Z,15.95
2022-12-03T16:19:59.878Z,19.92
2022-12-03T16:22:29.242Z,18.25
2022-12-03T16:24:58.751Z,18.20
2022-12-03T16:27:28.373Z,17.70
2022-12-03T16:29:58.179Z,20.38
2022-12-03T16:32:29.339Z,24.40
2022-12-03T16:34:59.005Z,21.77
2022-12-03T16:37:29.848Z,21.15
2022-12-03T16:42:32.040Z,18.65
2022-12-03T16:45:33.987Z,25.65
2022-12-03T16:48:05.596Z,19.98
2022-12-03T16:50:37.838Z,21.75
2022-12-03T16:53:07.855Z,17.35
2022-12-03T16:55:37.561Z,18.33
2022-12-03T16:58:07.103Z,19.10
2022-12-03T17:00:37.221Z,17.15
2022-12-03T17:03:10.125Z,13.15
2022-12-03T17:05:39.764Z,14.40
2022-12-03T17:08:12.341Z,14.13
2022-12-03T17:10:42.548Z,10.40
2022-12-03T17:13:12.124Z,11.48
2022-12-03T17:15:42.279Z,11.48
2022-12-03T17:18:13.329Z,13.88
2022-12-03T17:20:42.571Z,16.35
2022-12-03T17:23:12.096Z,13.55
2022-12-03T17:25:41.412Z,11.25
2022-12-03T17:28:10.700Z,13.57
2022-12-03T17:30:40.020Z,10.55
2022-12-03T17:33:09.333Z,10.98
2022-12-03T17:35:39.918Z,14.65
2022-12-03T17:38:11.366Z,11.85
2022-12-03T17:40:41.034Z,13.77
2022-12-03T17:43:10.623Z,15.00
2022-12-03T17:46:00.257Z,12.38
2022-12-03T17:48:31.525Z,10.93
2022-12-03T17:51:02.103Z,11.05
2022-12-03T17:53:31.189Z,12.43
2022-12-03T17:56:02.146Z,10.70
2022-12-03T17:58:44.071Z,15.00
2022-12-03T18:01:13.538Z,14.15
2022-12-03T18:03:42.973Z,10.20
2022-12-03T18:06:13.918Z,14.45
2022-12-03T18:08:42.922Z,13.52
2022-12-03T18:11:14.616Z,13.52
2022-12-03T18:13:46.320Z,11.45
2022-12-03T18:16:27.187Z,12.43
2022-12-03T18:19:02.020Z,13.65
2022-12-03T18:21:36.853Z,14.32
2022-12-03T18:24:11.787Z,11.18
2022-12-03T18:26:44.437Z,14.98
2022-12-03T18:29:16.535Z,14.10
2022-12-03T18:31:46.800Z,15.30
2022-12-03T18:34:16.942Z,16.13
2022-12-03T18:36:50.051Z,17.15
2022-12-03T18:39:26.801Z,15.02
2022-12-03T18:41:57.248Z,14.40
2022-12-03T18:44:26.680Z,12.55
2022-12-03T18:46:58.883Z,15.00
2022-12-03T18:49:30.810Z,16.60
2022-12-03T18:52:01.597Z,16.77
2022-12-03T18:54:31.242Z,16.40
2022-12-03T18:57:01.157Z,12.57
2022-12-03T18:59:31.500Z,16.60
2022-12-03T19:02:01.198Z,11.88
2022-12-03T19:04:35.820Z,12.55
2022-12-03T19:07:09.506Z,12.45
2022-12-03T19:09:38.768Z,14.55
2022-12-03T19:12:14.430Z,18.92
2022-12-03T19:14:44.471Z,13.63
2022-12-03T19:17:14.223Z,13.95
2022-12-03T19:19:43.854Z,13.10
2022-12-03T19:22:16.323Z,13.93
2022-12-03T19:24:45.971Z,16.23
2022-12-03T19:27:15.555Z,15.95
2022-12-03T19:29:45.199Z,13.88
2022-12-03T19:32:14.786Z,13.25
2022-12-03T19:34:44.657Z,19.55
2022-12-03T19:37:16.636Z,14.88
2022-12-03T19:39:50.641Z,15.23
2022-12-03T19:42:25.061Z,16.23
2022-12-03T19:44:55.124Z,15.85
2022-12-03T19:47:26.086Z,16.85
2022-12-03T19:49:56.542Z,14.35
2022-12-03T19:52:28.406Z,13.32
2022-12-03T19:54:58.609Z,19.15
2022-12-03T19:57:28.126Z,14.02
2022-12-03T19:59:57.755Z,15.00
2022-12-03T20:02:27.749Z,15.90
2022-12-03T20:04:57.640Z,12.80
2022-12-03T20:07:29.666Z,13.93
2022-12-03T20:10:03.012Z,15.23
2022-12-03T20:12:35.539Z,13.98
2022-12-03T20:15:07.777Z,13.60
2022-12-03T20:17:38.123Z,13.20
2022-12-03T20:20:09.335Z,18.00
2022-12-03T20:22:40.384Z,12.88
2022-12-03T20:25:10.945Z,20.85
2022-12-03T20:27:42.037Z,17.30
2022-12-03T20:30:13.213Z,15.60
2022-12-03T20:32:45.647Z,13.93
2022-12-03T20:35:18.203Z,17.73
2022-12-03T20:37:50.151Z,15.80
2022-12-03T20:40:19.770Z,14.98
2022-12-03T20:45:44.284Z,19.88
2022-12-03T20:48:14.365Z,16.10
2022-12-03T20:50:44.091Z,14.63
2022-12-03T20:53:24.667Z,16.67
2022-12-03T20:58:28.650Z,14.40
2022-12-03T21:00:58.336Z,12.98
2022-12-03T21:03:28.198Z,13.52
2022-12-03T21:06:01.821Z,15.02
2022-12-03T21:08:41.081Z,19.35
2022-12-03T21:11:11.941Z,13.18
2022-12-03T21:13:44.082Z,18.10
2022-12-03T21:16:15.839Z,18.30
2022-12-03T21:18:45.505Z,17.05
2022-12-03T21:21:18.885Z,14.57
2022-12-03T21:23:50.844Z,18.33
2022-12-03T21:26:22.753Z,21.95
2022-12-03T21:28:56.129Z,16.27
2022-12-03T21:31:28.137Z,23.17
2022-12-03T21:34:01.032Z,16.30
2022-12-03T21:36:30.596Z,23.47
2022-12-03T21:39:02.004Z,18.17
2022-12-03T21:41:32.156Z,13.98
2022-12-03T21:44:02.006Z,17.65
2022-12-03T21:47:11.219Z,13.98
2022-12-03T21:49:23.161Z,20.23
2022-12-03T21:51:53.067Z,17.50
2022-12-03T21:54:24.095Z,17.13
2022-12-03T21:56:53.399Z,17.05
2022-12-03T21:59:22.587Z,14.93
2022-12-03T22:01:56.752Z,16.67
2022-12-03T22:04:29.534Z,15.35
2022-12-03T22:06:59.145Z,18.02
2022-12-03T22:09:30.115Z,15.40
2022-12-03T22:12:01.229Z,17.75
2022-12-03T22:14:31.344Z,18.58
2022-12-03T22:17:00.740Z,17.02
2022-12-03T22:19:30.240Z,19.60
2022-12-03T22:21:59.485Z,16.77
2022-12-03T22:24:30.059Z,19.52
2022-12-03T22:26:59.699Z,19.67
2022-12-03T22:29:29.659Z,22.67
2022-12-03T22:31:58.885Z,18.63
2022-12-03T22:34:28.009Z,20.13
2022-12-03T22:36:57.507Z,16.50
2022-12-03T22:39:26.955Z,17.60
2022-12-03T22:41:57.264Z,18.75
2022-12-03T22:44:26.975Z,16.13
2022-12-03T22:46:56.560Z,18.10
2022-12-03T22:49:27.021Z,18.52
2022-12-03T22:51:56.260Z,18.20
2022-12-03T22:54:25.279Z,20.33
2022-12-03T22:56:54.504Z,17.30
2022-12-03T22:59:27.408Z,17.17
2022-12-03T23:01:56.683Z,18.47
2022-12-03T23:04:25.746Z,20.35
2022-12-03T23:07:12.819Z,17.92
2022-12-03T23:09:44.015Z,18.75
2022-12-03T23:12:14.911Z,22.13
2022-12-03T23:14:45.498Z,17.70
2022-12-03T23:17:14.989Z,21.65
2022-12-03T23:19:44.225Z,22.42
2022-12-03T23:22:14.290Z,17.23
2022-12-03T23:24:43.529Z,21.10
2022-12-03T23:27:12.938Z,21.70
2022-12-03T23:29:42.285Z,18.65
2022-12-03T23:32:12.813Z,15.88
2022-12-03T23:34:43.157Z,19.58
2022-12-03T23:37:12.833Z,15.32
2022-12-03T23:39:42.268Z,19.48
2022-12-03T23:42:43.065Z,19.38
2022-12-03T23:45:40.703Z,17.50
2022-12-03T23:48:25.152Z,20.98
2022-12-03T23:51:06.783Z,17.20
2022-12-03T23:53:36.351Z,22.85
2022-12-03T23:56:07.536Z,15.70
2022-12-03T23:58:38.802Z,17.85
